Time;durP1;ratioP1;P1;durP2;ratioP2;P2;SDS_P1;SDS_P2;PMS_P1;PMS_P2;Temp;Humidity;BMP_temperature;BMP_pressure;BME280_temperature;BME280_humidity;BME280_pressure;Samples;Min_cycle;Max_cycle;Signal;HPM_P1;HPM_P2
2023/05/29 00:02:52;;;;;;;;;;;;;;;15.05;44.15;97293.41;6298389;28;19924;-74
2023/05/29 00:05:55;;;;;;;;;;;;;;;15.03;44.25;97289.19;6298259;28;19978;-72
2023/05/29 00:08:59;;;;;;;;;;;;;;;15.00;44.39;97292.94;6298304;28;20162;-74
2023/05/29 00:12:02;;;;;;;;;;;;;;;14.98;44.34;97291.34;6298181;28;20315;-73
2023/05/29 00:15:04;;;;;;;;;;;;;;;14.97;44.37;97281.69;6297867;28;19931;-74
2023/05/29 00:18:06;;;;;;;;;;;;;;;14.96;44.42;97298.56;6296982;28;19924;-74
2023/05/29 00:21:12;;;;;;;;;;;;;;;14.95;44.47;97297.72;6298065;28;19924;-74
2023/05/29 00:24:16;;;;;;;;;;;;;;;14.95;44.20;97303.03;6298037;28;19925;-73
2023/05/29 00:27:21;;;;;;;;;;;;;;;15.03;44.30;97302.44;6297841;28;19997;-74
2023/05/29 00:30:22;;;;;;;;;;;;;;;15.33;44.12;97312.50;6297322;28;19939;-73
2023/05/29 00:33:23;;;;;;;;;;;;;;;15.45;43.99;97310.69;6297242;28;20031;-74
2023/05/29 00:36:28;;;;;;;;;;;;;;;15.51;44.12;97307.56;6297621;28;20022;-73
2023/05/29 00:39:34;;;;;;;;;;;;;;;15.49;43.93;97307.72;6297561;28;19966;-73
2023/05/29 00:42:37;;;;;;;;;;;;;;;15.45;44.06;97316.00;6297587;28;19932;-73
2023/05/29 00:45:41;;;;;;;;;;;;;;;15.42;44.12;97313.59;6297359;28;19924;-74
2023/05/29 00:48:44;;;;;;;;;;;;;;;15.43;44.07;97323.25;6297417;28;19951;-74
2023/05/29 00:51:52;;;;;;;;;;;;;;;15.44;44.05;97311.69;6296894;28;19925;-73
2023/05/29 00:55:01;;;;;;;;;;;;;;;15.45;43.94;97316.00;6297114;28;20305;-73
2023/05/29 00:58:05;;;;;;;;;;;;;;;15.48;44.03;97321.06;6296989;28;19924;-73
2023/05/29 01:01:06;;;;;;;;;;;;;;;15.54;44.04;97319.75;6296509;28;19925;-74
2023/05/29 01:04:07;;;;;;;;;;;;;;;15.58;43.96;97327.38;6297022;28;19936;-74
2023/05/29 01:07:10;;;;;;;;;;;;;;;15.66;43.89;97324.13;6296815;28;19925;-74
2023/05/29 01:10:12;;;;;;;;;;;;;;;15.76;43.56;97325.09;6296322;28;19931;-73
2023/05/29 01:13:26;;;;;;;;;;;;;;;15.87;43.43;97337.53;6296450;28;19924;-74
2023/05/29 01:16:41;;;;;;;;;;;;;;;15.96;42.91;97336.78;6295947;28;20295;-73
2023/05/29 01:20:04;;;;;;;;;;;;;;;16.01;43.24;97334.63;6296390;28;19925;-74
2023/05/29 01:23:11;;;;;;;;;;;;;;;16.19;43.33;97328.81;6295689;28;20444;-74
2023/05/29 01:26:30;;;;;;;;;;;;;;;16.26;43.30;97340.63;6296465;28;19924;-74
2023/05/29 01:29:34;;;;;;;;;;;;;;;16.35;43.02;97337.22;6296032;28;20421;-73
2023/05/29 01:32:41;;;;;;;;;;;;;;;16.62;43.19;97344.78;6296352;28;19928;-73
2023/05/29 01:35:45;;;;;;;;;;;;;;;16.67;43.04;97341.72;6296476;28;19924;-73
2023/05/29 01:38:46;;;;;;;;;;;;;;;16.69;43.04;97345.09;6294322;28;19932;-73
2023/05/29 01:41:50;;;;;;;;;;;;;;;16.66;43.41;97350.69;6296149;28;20389;-74
2023/05/29 01:44:55;;;;;;;;;;;;;;;16.70;42.80;97354.75;6295968;28;19924;-73
2023/05/29 01:47:56;;;;;;;;;;;;;;;16.74;43.14;97348.25;6295446;28;19916;-73
2023/05/29 01:51:02;;;;;;;;;;;;;;;16.80;43.02;97358.41;6295701;28;19924;-74
2023/05/29 01:54:03;;;;;;;;;;;;;;;16.87;43.18;97359.59;6295359;28;20058;-74
2023/05/29 01:57:07;;;;;;;;;;;;;;;16.95;42.50;97351.78;6295784;28;19951;-73
2023/05/29 02:00:11;;;;;;;;;;;;;;;17.05;42.39;97358.03;6295604;28;19924;-73
2023/05/29 02:03:12;;;;;;;;;;;;;;;17.15;42.39;97359.94;6293629;28;19924;-73
2023/05/29 02:06:15;;;;;;;;;;;;;;;17.25;42.47;97351.06;6295417;28;19924;-73
2023/05/29 02:09:20;;;;;;;;;;;;;;;17.32;42.12;97364.66;6295220;28;19924;-73
2023/05/29 02:12:23;;;;;;;;;;;;;;;17.42;41.92;97359.44;6293947;28;20019;-73
2023/05/29 02:15:26;;;;;;;;;;;;;;;17.53;41.48;97366.50;6294948;28;19924;-74
2023/05/29 02:18:34;;;;;;;;;;;;;;;17.62;41.76;97365.72;6295291;28;20402;-73
2023/05/29 02:21:37;;;;;;;;;;;;;;;17.72;41.93;97366.63;6294906;28;19925;-72
2023/05/29 02:24:41;;;;;;;;;;;;;;;17.82;41.50;97353.38;6294853;28;19924;-74
2023/05/29 02:27:42;;;;;;;;;;;;;;;17.93;42.12;97364.78;6294861;28;20408;-74
2023/05/29 02:30:43;;;;;;;;;;;;;;;18.09;41.57;97360.78;6295099;28;20417;-74
2023/05/29 02:33:48;;;;;;;;;;;;;;;18.23;41.42;97371.06;6294909;28;19924;-73
2023/05/29 02:36:49;;;;;;;;;;;;;;;18.34;41.42;97368.31;6294568;28;20363;-73
2023/05/29 02:39:51;;;;;;;;;;;;;;;18.48;41.58;97366.22;6292008;28;20305;-75
2023/05/29 02:42:54;;;;;;;;;;;;;;;18.56;41.64;97367.22;6294701;28;20035;-75
2023/05/29 02:45:55;;;;;;;;;;;;;;;18.67;41.14;97363.59;6293976;28;19932;-73
2023/05/29 02:48:56;;;;;;;;;;;;;;;18.87;41.22;97369.00;6294463;28;19924;-74
2023/05/29 02:52:02;;;;;;;;;;;;;;;19.15;41.14;97372.66;6294965;28;19924;-74
2023/05/29 02:55:06;;;;;;;;;;;;;;;19.18;40.76;97375.88;6294771;28;19924;-73
2023/05/29 02:58:11;;;;;;;;;;;;;;;19.37;40.78;97376.84;6293833;28;20526;-74
2023/05/29 03:01:12;;;;;;;;;;;;;;;19.59;40.64;97365.88;6294160;28;19925;-75
2023/05/29 03:04:17;;;;;;;;;;;;;;;19.70;40.32;97371.06;6293889;28;19932;-74
2023/05/29 03:07:18;;;;;;;;;;;;;;;19.78;40.10;97374.81;6294528;28;19925;-74
2023/05/29 03:10:20;;;;;;;;;;;;;;;19.81;40.15;97374.53;6294354;28;20309;-74
2023/05/29 03:13:21;;;;;;;;;;;;;;;19.96;40.23;97378.44;6294000;28;20409;-74
2023/05/29 03:16:25;;;;;;;;;;;;;;;20.23;39.45;97384.78;6294042;28;20386;-75
2023/05/29 03:19:33;;;;;;;;;;;;;;;20.33;38.85;97381.09;6293068;28;20075;-74
2023/05/29 03:22:36;;;;;;;;;;;;;;;20.50;38.27;97375.94;6294287;28;19921;-75
2023/05/29 03:25:43;;;;;;;;;;;;;;;20.65;37.48;97373.63;6294214;28;19928;-75
2023/05/29 03:28:48;;;;;;;;;;;;;;;20.77;37.15;97372.41;6294279;28;19947;-73
2023/05/29 03:31:52;;;;;;;;;;;;;;;20.94;36.40;97379.63;6294059;28;20317;-73
2023/05/29 03:34:57;;;;;;;;;;;;;;;21.17;35.48;97373.81;6293955;28;20378;-73
2023/05/29 03:37:58;;;;;;;;;;;;;;;21.23;35.41;97383.91;6293993;28;20287;-73
2023/05/29 03:41:01;;;;;;;;;;;;;;;21.33;35.17;97379.31;6294336;28;20309;-73
2023/05/29 03:44:02;;;;;;;;;;;;;;;21.42;35.03;97383.75;6292306;28;19931;-74
2023/05/29 03:47:03;;;;;;;;;;;;;;;21.45;35.00;97388.81;6292952;28;19925;-74
2023/05/29 03:50:06;;;;;;;;;;;;;;;21.58;34.86;97376.88;6293765;28;19936;-74
2023/05/29 03:53:09;;;;;;;;;;;;;;;21.62;34.79;97372.88;6297179;28;19924;-74
2023/05/29 03:56:13;;;;;;;;;;;;;;;21.79;34.44;97373.81;6298464;28;19925;-74
2023/05/29 03:59:14;;;;;;;;;;;;;;;22.01;34.10;97369.78;6297985;28;19924;-74
2023/05/29 04:02:15;;;;;;;;;;;;;;;22.05;34.21;97368.44;6296383;28;19935;-74
2023/05/29 04:05:19;;;;;;;;;;;;;;;22.24;33.66;97373.59;6298457;28;19924;-74
2023/05/29 04:08:23;;;;;;;;;;;;;;;22.37;33.49;97371.31;6297755;28;19924;-73
2023/05/29 04:11:26;;;;;;;;;;;;;;;22.54;33.12;97368.72;6297648;28;20309;-75
2023/05/29 04:14:32;;;;;;;;;;;;;;;22.90;31.28;97363.94;6297900;28;19930;-73
2023/05/29 04:17:35;;;;;;;;;;;;;;;23.27;29.36;97360.81;6296757;28;19924;-76
2023/05/29 04:20:37;;;;;;;;;;;;;;;23.54;28.50;97366.84;6297772;28;20181;-73
2023/05/29 04:23:40;;;;;;;;;;;;;;;23.59;29.00;97369.88;6296037;28;19951;-74
2023/05/29 04:26:46;;;;;;;;;;;;;;;23.57;29.28;97360.31;6298083;28;19928;-75
2023/05/29 04:29:47;;;;;;;;;;;;;;;24.01;27.78;97355.41;6297303;28;19925;-73
2023/05/29 04:32:48;;;;;;;;;;;;;;;24.14;27.74;97363.72;6297251;28;20306;-73
2023/05/29 04:35:54;;;;;;;;;;;;;;;24.63;25.84;97358.19;6297497;28;19924;-74
2023/05/29 04:38:58;;;;;;;;;;;;;;;25.47;23.86;97365.56;6297467;28;20348;-74
2023/05/29 04:42:00;;;;;;;;;;;;;;;27.76;21.87;97363.47;6297323;28;19947;-74
2023/05/29 04:45:02;;;;;;;;;;;;;;;30.19;19.15;97361.97;6297165;28;19924;-75
2023/05/29 04:48:05;;;;;;;;;;;;;;;32.28;17.70;97372.31;6297196;28;19971;-73
2023/05/29 04:51:10;;;;;;;;;;;;;;;34.07;15.51;97379.97;6297118;28;19925;-74
2023/05/29 04:54:16;;;;;;;;;;;;;;;36.04;13.31;97380.59;6296933;28;19925;-74
2023/05/29 04:57:17;;;;;;;;;;;;;;;37.40;11.74;97376.38;6296817;28;19931;-73
2023/05/29 05:00:20;;;;;;;;;;;;;;;38.36;10.96;97371.91;6296914;28;20027;-73
2023/05/29 05:03:21;;;;;;;;;;;;;;;39.48;10.01;97383.41;6295673;28;19926;-74
2023/05/29 05:06:28;;;;;;;;;;;;;;;40.16;9.96;97380.41;6296383;28;19920;-74
2023/05/29 05:09:32;;;;;;;;;;;;;;;41.86;8.69;97375.00;6296835;28;19924;-75
2023/05/29 05:12:38;;;;;;;;;;;;;;;42.90;8.51;97380.06;6296905;28;19920;-73
2023/05/29 05:15:42;;;;;;;;;;;;;;;43.65;8.12;97372.94;6295571;28;19969;-74
2023/05/29 05:18:46;;;;;;;;;;;;;;;44.36;7.58;97376.44;6296039;28;19983;-74
2023/05/29 05:21:50;;;;;;;;;;;;;;;44.90;7.45;97380.41;6296691;28;19928;-73
2023/05/29 05:24:55;;;;;;;;;;;;;;;44.56;7.29;97364.97;6296473;28;19931;-74
2023/05/29 05:28:00;;;;;;;;;;;;;;;44.19;7.85;97359.56;6296373;28;19928;-74
2023/05/29 05:31:01;;;;;;;;;;;;;;;44.82;7.55;97367.25;6296111;28;19924;-74
2023/05/29 05:34:05;;;;;;;;;;;;;;;44.34;7.68;97362.06;6295816;28;19924;-74
2023/05/29 05:37:13;;;;;;;;;;;;;;;44.65;7.75;97367.03;6296135;28;20031;-73
2023/05/29 05:40:18;;;;;;;;;;;;;;;44.96;7.64;97361.69;6295655;28;19931;-74
2023/05/29 05:43:19;;;;;;;;;;;;;;;45.92;7.14;97366.19;6295113;28;19924;-74
2023/05/29 05:46:23;;;;;;;;;;;;;;;45.86;7.59;97372.94;6296158;28;20390;-73
2023/05/29 05:49:26;;;;;;;;;;;;;;;46.54;7.26;97360.63;6295962;28;19928;-74
2023/05/29 05:52:32;;;;;;;;;;;;;;;47.23;6.71;97365.56;6295870;28;19967;-74
2023/05/29 05:55:35;;;;;;;;;;;;;;;47.46;6.43;97368.25;6295677;28;19933;-73
2023/05/29 05:58:39;;;;;;;;;;;;;;;46.86;6.46;97360.59;6295579;28;19928;-74
2023/05/29 06:01:43;;;;;;;;;;;;;;;46.74;6.42;97364.81;6295284;28;19924;-73
2023/05/29 06:04:45;;;;;;;;;;;;;;;47.01;6.24;97362.91;6295489;28;20001;-73
2023/05/29 06:07:51;;;;;;;;;;;;;;;46.68;6.40;97352.16;6295335;28;19924;-73
2023/05/29 06:10:57;;;;;;;;;;;;;;;46.94;6.05;97368.09;6295221;28;19924;-73
2023/05/29 06:14:00;;;;;;;;;;;;;;;46.16;6.22;97343.56;6294029;28;19924;-73
2023/05/29 06:17:01;;;;;;;;;;;;;;;45.87;6.52;97339.28;6295163;28;19968;-73
2023/05/29 06:20:09;;;;;;;;;;;;;;;46.18;5.89;97330.16;6293432;28;20410;-74
2023/05/29 06:23:13;;;;;;;;;;;;;;;45.40;6.16;97333.19;6294081;28;19924;-73
2023/05/29 06:26:16;;;;;;;;;;;;;;;45.73;6.35;97323.81;6294495;28;19931;-73
2023/05/29 06:29:20;;;;;;;;;;;;;;;46.86;5.84;97332.72;6294699;28;19928;-73
2023/05/29 06:32:22;;;;;;;;;;;;;;;47.48;5.87;97332.50;6294821;28;19947;-73
2023/05/29 06:35:26;;;;;;;;;;;;;;;47.51;5.11;97326.28;6292788;28;19929;-73
2023/05/29 06:38:32;;;;;;;;;;;;;;;48.02;5.18;97327.34;6294836;28;20035;-73
2023/05/29 06:41:38;;;;;;;;;;;;;;;47.94;5.25;97328.19;6294817;28;19928;-73
2023/05/29 06:44:44;;;;;;;;;;;;;;;47.46;4.80;97359.88;6294644;28;19924;-73
2023/05/29 06:47:47;;;;;;;;;;;;;;;46.84;4.95;97346.97;6294333;28;19924;-74
2023/05/29 06:50:48;;;;;;;;;;;;;;;46.50;5.43;97336.53;6294575;28;19931;-74
2023/05/29 06:53:52;;;;;;;;;;;;;;;46.41;5.20;97327.34;6293142;28;19924;-73
2023/05/29 06:56:56;;;;;;;;;;;;;;;47.43;4.94;97324.31;6294504;28;19924;-73
2023/05/29 06:59:57;;;;;;;;;;;;;;;48.09;4.91;97336.00;6292436;28;19931;-73
2023/05/29 07:03:01;;;;;;;;;;;;;;;48.10;4.37;97337.66;6294709;28;20489;-73
2023/05/29 07:06:02;;;;;;;;;;;;;;;47.51;4.83;97329.06;6294391;28;20408;-73
2023/05/29 07:09:07;;;;;;;;;;;;;;;47.74;4.67;97317.72;6292654;28;20231;-73
2023/05/29 07:12:10;;;;;;;;;;;;;;;49.57;4.27;97331.59;6294859;28;19959;-74
2023/05/29 07:15:18;;;;;;;;;;;;;;;50.19;4.22;97329.84;6294095;28;19928;-74
2023/05/29 07:18:20;;;;;;;;;;;;;;;50.89;3.83;97312.97;6293436;28;20416;-73
2023/05/29 07:21:24;;;;;;;;;;;;;;;50.95;3.77;97322.75;6293371;28;19939;-74
2023/05/29 07:24:30;;;;;;;;;;;;;;;50.97;3.67;97332.44;6294419;28;19924;-74
2023/05/29 07:27:32;;;;;;;;;;;;;;;50.40;3.85;97324.19;6297708;28;20386;-73
2023/05/29 07:30:36;;;;;;;;;;;;;;;49.26;4.35;97310.47;6298610;28;19932;-72
2023/05/29 07:33:40;;;;;;;;;;;;;;;49.17;4.28;97306.91;6299020;28;19925;-73
2023/05/29 07:36:59;;;;;;;;;;;;;;;47.39;4.65;97298.19;6298353;28;20046;-73
2023/05/29 07:40:05;;;;;;;;;;;;;;;45.43;5.64;97299.19;6298600;28;19924;-74
2023/05/29 07:43:11;;;;;;;;;;;;;;;43.15;6.44;97282.00;6298680;28;19924;-73
2023/05/29 07:46:14;;;;;;;;;;;;;;;42.69;6.66;97293.69;6298678;28;19924;-73
2023/05/29 07:49:17;;;;;;;;;;;;;;;41.03;7.39;97282.78;6298605;28;19932;-73
2023/05/29 07:52:21;;;;;;;;;;;;;;;40.20;7.88;97291.69;6298464;28;19920;-73
2023/05/29 07:55:24;;;;;;;;;;;;;;;40.71;7.82;97277.69;6298632;28;19932;-73
2023/05/29 07:58:28;;;;;;;;;;;;;;;42.82;6.89;97273.59;6298284;28;20293;-72
2023/05/29 08:01:34;;;;;;;;;;;;;;;44.41;5.92;97282.03;6297834;28;19928;-73
2023/05/29 08:04:35;;;;;;;;;;;;;;;44.55;5.95;97285.63;6298025;28;19931;-73
2023/05/29 08:07:38;;;;;;;;;;;;;;;45.45;5.93;97280.25;6297624;28;19924;-73
2023/05/29 08:10:43;;;;;;;;;;;;;;;47.39;4.85;97295.41;6298534;28;19924;-72
2023/05/29 08:13:47;;;;;;;;;;;;;;;47.73;4.88;97282.59;6298168;28;19931;-73
2023/05/29 08:16:48;;;;;;;;;;;;;;;48.15;5.10;97278.06;6297493;28;19971;-73
2023/05/29 08:19:52;;;;;;;;;;;;;;;48.84;4.67;97271.31;6297611;28;19931;-73
2023/05/29 08:22:58;;;;;;;;;;;;;;;48.96;4.26;97279.78;6297837;28;19931;-73
2023/05/29 08:26:05;;;;;;;;;;;;;;;48.66;4.41;97275.38;6297721;28;19928;-73
2023/05/29 08:29:10;;;;;;;;;;;;;;;49.81;4.10;97281.34;6297750;28;19939;-73
2023/05/29 08:32:13;;;;;;;;;;;;;;;49.80;4.14;97264.91;6297262;28;20326;-73
2023/05/29 08:35:16;;;;;;;;;;;;;;;50.67;3.86;97267.47;6297455;28;19925;-73
2023/05/29 08:38:17;;;;;;;;;;;;;;;50.27;3.76;97282.13;6296535;28;19932;-72
2023/05/29 08:41:26;;;;;;;;;;;;;;;49.57;3.97;97258.88;6297299;28;19924;-73
2023/05/29 08:44:29;;;;;;;;;;;;;;;49.54;3.87;97254.78;6296904;28;19939;-74
2023/05/29 08:47:33;;;;;;;;;;;;;;;50.88;3.70;97261.72;6296905;28;20382;-73
2023/05/29 08:50:46;;;;;;;;;;;;;;;50.50;3.64;97267.69;6296942;28;19925;-72
2023/05/29 08:53:51;;;;;;;;;;;;;;;48.79;4.12;97268.72;6296902;28;20386;-73
2023/05/29 08:56:55;;;;;;;;;;;;;;;47.92;4.71;97257.16;6296419;28;20309;-73
2023/05/29 08:59:59;;;;;;;;;;;;;;;47.77;4.40;97250.94;6296045;28;19931;-73
2023/05/29 09:03:00;;;;;;;;;;;;;;;48.47;4.55;97257.06;6296757;28;20381;-73
2023/05/29 09:06:04;;;;;;;;;;;;;;;48.48;4.66;97258.69;6296896;28;19924;-74
2023/05/29 09:09:09;;;;;;;;;;;;;;;47.55;4.88;97246.38;6296728;28;20390;-73
2023/05/29 09:12:16;;;;;;;;;;;;;;;47.59;4.64;97254.91;6296260;28;19925;-73
2023/05/29 09:15:19;;;;;;;;;;;;;;;48.93;3.99;97266.50;6295173;28;20007;-74
2023/05/29 09:18:22;;;;;;;;;;;;;;;48.75;3.75;97263.00;6296389;28;20394;-73
2023/05/29 09:21:29;;;;;;;;;;;;;;;47.84;4.47;97261.59;6296649;28;19924;-75
2023/05/29 09:24:36;;;;;;;;;;;;;;;45.32;5.58;97258.91;6296520;28;19924;-75
2023/05/29 09:27:41;;;;;;;;;;;;;;;42.49;6.51;97249.66;6296535;28;19925;-74
2023/05/29 09:30:46;;;;;;;;;;;;;;;40.82;7.51;97237.91;6295962;28;20317;-73
2023/05/29 09:33:51;;;;;;;;;;;;;;;41.19;7.65;97247.63;6296005;28;20201;-73
2023/05/29 09:36:53;;;;;;;;;;;;;;;40.11;8.18;97239.84;6295638;28;19924;-74
2023/05/29 09:39:58;;;;;;;;;;;;;;;38.99;8.86;97234.44;6295493;28;19929;-73
2023/05/29 09:43:04;;;;;;;;;;;;;;;37.89;9.21;97232.59;6295811;28;20289;-73
2023/05/29 09:46:14;;;;;;;;;;;;;;;37.92;9.33;97221.91;6295991;28;19925;-73
2023/05/29 09:49:22;;;;;;;;;;;;;;;40.96;8.04;97219.59;6294712;28;20475;-74
2023/05/29 09:52:26;;;;;;;;;;;;;;;43.87;6.57;97234.50;6295323;28;20040;-74
2023/05/29 09:55:32;;;;;;;;;;;;;;;44.24;6.04;97237.41;6295371;28;20544;-74
2023/05/29 09:58:33;;;;;;;;;;;;;;;43.80;6.07;97230.50;6294666;28;20019;-73
2023/05/29 10:01:39;;;;;;;;;;;;;;;42.95;6.72;97238.00;6295746;28;19924;-73
2023/05/29 10:04:45;;;;;;;;;;;;;;;41.01;7.34;97218.75;6295519;28;20402;-73
2023/05/29 10:07:52;;;;;;;;;;;;;;;40.97;7.35;97212.97;6294840;28;19928;-73
2023/05/29 10:11:01;;;;;;;;;;;;;;;40.67;7.67;97218.72;6295206;28;20397;-73
2023/05/29 10:14:05;;;;;;;;;;;;;;;40.74;7.67;97224.72;6295130;28;20334;-73
2023/05/29 10:17:08;;;;;;;;;;;;;;;41.30;7.34;97232.59;6294873;28;20011;-73
2023/05/29 10:20:16;;;;;;;;;;;;;;;40.29;7.63;97218.34;6294499;28;20214;-73
2023/05/29 10:23:21;;;;;;;;;;;;;;;39.80;8.00;97221.75;6294570;28;19924;-74
2023/05/29 10:26:27;;;;;;;;;;;;;;;39.50;8.00;97202.25;6294824;28;19924;-73
2023/05/29 10:29:34;;;;;;;;;;;;;;;39.41;8.23;97203.09;6294913;28;19943;-73
2023/05/29 10:32:52;;;;;;;;;;;;;;;39.55;8.12;97195.91;6294720;28;20193;-73
2023/05/29 10:36:01;;;;;;;;;;;;;;;39.95;7.91;97205.19;6294972;28;19924;-74
2023/05/29 10:39:08;;;;;;;;;;;;;;;39.86;8.14;97193.09;6295755;28;19928;-74
2023/05/29 10:42:28;;;;;;;;;;;;;;;40.76;7.73;97205.94;6295007;28;19925;-74
2023/05/29 10:45:29;;;;;;;;;;;;;;;40.72;7.79;97200.19;6294083;28;19970;-72
2023/05/29 10:48:36;;;;;;;;;;;;;;;39.83;8.19;97197.25;6293478;28;19925;-74
2023/05/29 10:51:40;;;;;;;;;;;;;;;38.80;8.45;97182.66;6294594;28;19924;-75
2023/05/29 10:54:53;;;;;;;;;;;;;;;38.51;9.10;97178.78;6294282;28;19925;-73
2023/05/29 10:57:58;;;;;;;;;;;;;;;38.70;8.77;97181.81;6294839;28;20370;-75
2023/05/29 11:00:59;;;;;;;;;;;;;;;38.85;8.53;97162.59;6295370;28;19924;-73
2023/05/29 11:04:19;;;;;;;;;;;;;;;39.06;8.98;97201.97;6299613;28;19925;-74
2023/05/29 11:07:34;;;;;;;;;;;;;;;38.50;9.05;97185.34;6299458;28;19924;-73
2023/05/29 11:11:01;;;;;;;;;;;;;;;37.98;9.06;97173.34;6297956;28;20301;-74
2023/05/29 11:14:04;;;;;;;;;;;;;;;37.70;9.48;97174.53;6294925;28;19924;-74
2023/05/29 11:17:05;;;;;;;;;;;;;;;37.33;9.67;97169.91;6297255;28;19925;-73
2023/05/29 11:20:07;;;;;;;;;;;;;;;37.56;9.36;97163.22;6298598;28;19978;-73
2023/05/29 11:23:12;;;;;;;;;;;;;;;37.80;9.53;97152.63;6298515;28;19931;-74
2023/05/29 11:26:19;;;;;;;;;;;;;;;38.12;9.00;97154.44;6298726;28;19925;-73
2023/05/29 11:29:24;;;;;;;;;;;;;;;38.57;8.93;97151.00;6298195;28;19925;-74
2023/05/29 11:32:27;;;;;;;;;;;;;;;38.28;9.02;97147.06;6297826;28;20038;-73
2023/05/29 11:35:30;;;;;;;;;;;;;;;38.00;9.36;97145.63;6298115;28;19935;-73
2023/05/29 11:38:33;;;;;;;;;;;;;;;37.22;9.53;97151.72;6298203;28;19932;-73
2023/05/29 11:41:34;;;;;;;;;;;;;;;36.84;10.08;97150.84;6297889;28;19960;-73
2023/05/29 11:44:36;;;;;;;;;;;;;;;36.27;10.35;97126.69;6298131;28;19931;-73
2023/05/29 11:47:52;;;;;;;;;;;;;;;35.84;10.76;97142.03;6298464;28;20066;-74
2023/05/29 11:50:56;;;;;;;;;;;;;;;35.56;10.86;97135.69;6298184;28;19924;-74
2023/05/29 11:53:58;;;;;;;;;;;;;;;35.06;11.01;97125.63;6297653;28;20073;-73
2023/05/29 11:57:05;;;;;;;;;;;;;;;34.99;11.31;97122.19;6297983;28;19924;-73
2023/05/29 12:00:07;;;;;;;;;;;;;;;35.54;10.74;97124.13;6297817;28;19932;-73
2023/05/29 12:03:11;;;;;;;;;;;;;;;35.92;10.66;97128.72;6297882;28;20305;-74
2023/05/29 12:06:12;;;;;;;;;;;;;;;35.80;10.39;97119.81;6297394;28;20287;-73
2023/05/29 12:09:26;;;;;;;;;;;;;;;35.46;10.36;97113.59;6296416;28;20006;-72
2023/05/29 12:12:33;;;;;;;;;;;;;;;35.04;10.88;97114.88;6296429;28;20352;-73
2023/05/29 12:15:35;;;;;;;;;;;;;;;35.03;10.66;97115.16;6297169;28;19931;-73
2023/05/29 12:18:39;;;;;;;;;;;;;;;35.06;10.77;97117.41;6296964;28;19925;-73
2023/05/29 12:21:42;;;;;;;;;;;;;;;35.05;10.90;97104.81;6297007;28;19963;-74
2023/05/29 12:24:45;;;;;;;;;;;;;;;34.85;11.00;97108.88;6296834;28;20349;-74
2023/05/29 12:27:48;;;;;;;;;;;;;;;34.93;11.27;97098.56;6296580;28;19928;-73
2023/05/29 12:30:58;;;;;;;;;;;;;;;34.91;11.19;97106.22;6297421;28;19925;-73
2023/05/29 12:34:02;;;;;;;;;;;;;;;34.60;11.35;97095.59;6296849;28;20412;-73
2023/05/29 12:37:11;;;;;;;;;;;;;;;34.53;11.29;97088.59;6295962;28;20446;-73
2023/05/29 12:40:19;;;;;;;;;;;;;;;34.38;11.49;97090.00;6296771;28;19931;-74
2023/05/29 12:43:23;;;;;;;;;;;;;;;34.03;11.75;97094.75;6297001;28;19925;-73
2023/05/29 12:46:25;;;;;;;;;;;;;;;33.68;11.75;97095.72;6296520;28;20368;-73
2023/05/29 12:49:28;;;;;;;;;;;;;;;33.65;12.39;97101.66;6296569;28;20050;-72
2023/05/29 12:52:29;;;;;;;;;;;;;;;33.44;12.56;97098.47;6295038;28;19925;-73
2023/05/29 12:55:38;;;;;;;;;;;;;;;33.15;12.44;97091.25;6296716;28;19931;-74
2023/05/29 12:58:39;;;;;;;;;;;;;;;32.75;13.10;97097.38;6296014;28;19931;-73
2023/05/29 13:01:43;;;;;;;;;;;;;;;32.58;13.40;97102.69;6296340;28;19967;-74
2023/05/29 13:04:46;;;;;;;;;;;;;;;31.93;13.85;97106.13;6296298;28;20333;-73
2023/05/29 13:07:50;;;;;;;;;;;;;;;31.71;14.16;97103.88;6296275;28;19924;-73
2023/05/29 13:10:53;;;;;;;;;;;;;;;31.53;14.05;97112.03;6295812;28;20308;-74
2023/05/29 13:13:57;;;;;;;;;;;;;;;31.47;13.76;97115.66;6296261;28;19989;-72
2023/05/29 13:16:58;;;;;;;;;;;;;;;31.62;14.14;97120.72;6296151;28;20019;-74
2023/05/29 13:20:07;;;;;;;;;;;;;;;31.41;14.33;97117.41;6296303;28;19924;-72
2023/05/29 13:23:08;;;;;;;;;;;;;;;31.26;14.77;97115.03;6295463;28;19955;-72
2023/05/29 13:26:15;;;;;;;;;;;;;;;30.99;14.82;97108.19;6295901;28;20124;-74
2023/05/29 13:29:22;;;;;;;;;;;;;;;30.96;14.76;97127.66;6295806;28;19955;-73
2023/05/29 13:32:28;;;;;;;;;;;;;;;30.84;15.06;97128.38;6296315;28;19924;-74
2023/05/29 13:35:34;;;;;;;;;;;;;;;30.77;15.35;97122.16;6295818;28;19944;-73
2023/05/29 13:38:38;;;;;;;;;;;;;;;30.78;15.68;97122.97;6296064;28;20302;-74
2023/05/29 13:41:40;;;;;;;;;;;;;;;30.88;15.40;97128.75;6295031;28;20021;-73
2023/05/29 13:44:44;;;;;;;;;;;;;;;30.99;15.20;97136.19;6295813;28;19924;-73
2023/05/29 13:47:54;;;;;;;;;;;;;;;30.81;15.17;97128.81;6295228;28;20308;-73
2023/05/29 13:50:57;;;;;;;;;;;;;;;30.73;15.53;97130.94;6295417;28;19924;-73
2023/05/29 13:54:03;;;;;;;;;;;;;;;30.46;15.58;97133.03;6295385;28;20005;-73
2023/05/29 13:57:09;;;;;;;;;;;;;;;30.43;15.85;97131.56;6295122;28;19975;-74
2023/05/29 14:00:13;;;;;;;;;;;;;;;30.32;16.28;97145.84;6295171;28;20586;-73
2023/05/29 14:03:18;;;;;;;;;;;;;;;29.97;16.51;97133.47;6295054;28;19924;-73
2023/05/29 14:06:19;;;;;;;;;;;;;;;30.06;16.66;97141.38;6294234;28;19934;-74
2023/05/29 14:09:27;;;;;;;;;;;;;;;29.91;16.63;97156.06;6295145;28;20437;-74
2023/05/29 14:12:31;;;;;;;;;;;;;;;29.97;16.74;97136.19;6295120;28;19924;-74
2023/05/29 14:15:35;;;;;;;;;;;;;;;30.00;16.60;97145.78;6294600;28;20499;-73
2023/05/29 14:18:36;;;;;;;;;;;;;;;30.05;16.83;97147.84;6294972;28;20301;-74
2023/05/29 14:21:45;;;;;;;;;;;;;;;30.18;16.75;97151.34;6294394;28;19931;-73
2023/05/29 14:24:48;;;;;;;;;;;;;;;30.32;17.07;97146.69;6293340;28;19924;-73
2023/05/29 14:27:49;;;;;;;;;;;;;;;30.54;16.87;97149.06;6294535;28;19950;-74
2023/05/29 14:30:52;;;;;;;;;;;;;;;30.57;16.76;97148.59;6294698;28;20301;-73
2023/05/29 14:33:53;;;;;;;;;;;;;;;30.75;16.59;97161.44;6294745;28;20421;-74
2023/05/29 14:36:54;;;;;;;;;;;;;;;30.79;16.41;97158.09;6293721;28;19920;-74
2023/05/29 14:39:57;;;;;;;;;;;;;;;30.63;16.54;97161.31;6294423;28;19924;-75
2023/05/29 14:43:01;;;;;;;;;;;;;;;30.30;16.69;97159.66;6294803;28;19928;-75
2023/05/29 14:46:02;;;;;;;;;;;;;;;30.18;17.19;97172.22;6294066;28;19924;-74
2023/05/29 14:49:08;;;;;;;;;;;;;;;29.80;17.27;97159.44;6294838;28;20436;-75
2023/05/29 14:52:14;;;;;;;;;;;;;;;29.70;17.42;97169.91;6294409;28;19924;-74
2023/05/29 14:55:18;;;;;;;;;;;;;;;29.43;17.68;97152.84;6294392;28;20019;-74
2023/05/29 14:58:19;;;;;;;;;;;;;;;29.34;17.93;97160.38;6294147;28;20030;-74
2023/05/29 15:01:25;;;;;;;;;;;;;;;28.93;18.27;97163.28;6293249;28;20001;-73
2023/05/29 15:04:26;;;;;;;;;;;;;;;28.81;18.83;97165.78;6293813;28;19989;-75
2023/05/29 15:07:30;;;;;;;;;;;;;;;28.92;18.73;97170.59;6293888;28;19969;-73
2023/05/29 15:10:33;;;;;;;;;;;;;;;28.81;18.98;97176.63;6294161;28;19935;-74
2023/05/29 15:13:38;;;;;;;;;;;;;;;28.51;19.24;97182.44;6294220;28;20401;-73
2023/05/29 15:16:39;;;;;;;;;;;;;;;28.16;19.47;97185.22;6292412;28;19935;-72
2023/05/29 15:19:40;;;;;;;;;;;;;;;28.02;19.70;97186.22;6291954;28;19924;-74
2023/05/29 15:22:41;;;;;;;;;;;;;;;27.70;19.98;97185.84;6293883;28;19928;-75
2023/05/29 15:25:46;;;;;;;;;;;;;;;27.49;20.24;97194.03;6294425;28;19924;-75
2023/05/29 15:28:52;;;;;;;;;;;;;;;27.35;20.56;97186.88;6294267;28;19925;-73
2023/05/29 15:31:57;;;;;;;;;;;;;;;27.05;20.94;97185.19;6293952;28;19920;-73
2023/05/29 15:35:00;;;;;;;;;;;;;;;26.90;21.01;97197.13;6292013;28;19936;-73
2023/05/29 15:38:04;;;;;;;;;;;;;;;26.73;21.25;97200.06;6294330;28;19928;-74
2023/05/29 15:41:07;;;;;;;;;;;;;;;26.61;21.43;97196.19;6293865;28;19921;-73
2023/05/29 15:44:08;;;;;;;;;;;;;;;26.47;22.00;97206.03;6294020;28;20010;-74
2023/05/29 15:47:12;;;;;;;;;;;;;;;26.45;21.94;97204.53;6295649;28;19924;-78
2023/05/29 15:50:13;;;;;;;;;;;;;;;26.23;22.11;97209.91;6297934;28;19924;-76
2023/05/29 15:53:19;;;;;;;;;;;;;;;26.18;22.95;97209.63;6298093;28;19931;-75
2023/05/29 15:56:27;;;;;;;;;;;;;;;25.88;22.81;97212.38;6298173;28;19928;-74
2023/05/29 15:59:30;;;;;;;;;;;;;;;25.84;23.30;97208.38;6297334;28;20429;-74
2023/05/29 16:02:31;;;;;;;;;;;;;;;25.86;23.22;97205.50;6297248;28;19925;-75
2023/05/29 16:05:36;;;;;;;;;;;;;;;25.52;23.42;97215.81;6298011;28;19925;-75